Time;durP1;ratioP1;P1;durP2;ratioP2;P2;SDS_P1;SDS_P2;PMS_P1;PMS_P2;Temp;Humidity;BMP_temperature;BMP_pressure;BME280_temperature;BME280_humidity;BME280_pressure;Samples;Min_cycle;Max_cycle;Signal;HPM_P1;HPM_P2
2021/11/07 00:00:38;;;;;;;29.00;10.07;;;;;;;-145.69;100.00;73655.56;5073993;28;20573;-77
2021/11/07 00:03:09;;;;;;;28.73;10.00;;;;;;;-145.69;100.00;73669.50;5073749;28;20194;-77
2021/11/07 00:05:41;;;;;;;23.33;8.97;;;;;;;-145.69;100.00;73663.53;5073765;28;20296;-76
2021/11/07 00:10:52;;;;;;;29.10;11.33;;;;;;;-145.69;100.00;73615.72;5070468;28;20203;-76
2021/11/07 00:13:21;;;;;;;36.70;11.60;;;;;;;-145.69;100.00;73611.75;5073673;28;20768;-76
2021/11/07 00:15:48;;;;;;;34.80;10.73;;;;;;;-145.69;100.00;73625.69;5073497;28;20207;-77
2021/11/07 00:18:18;;;;;;;35.73;11.57;;;;;;;-145.69;100.00;73631.66;5073553;28;20199;-77
2021/11/07 00:20:53;;;;;;;35.60;12.20;;;;;;;-145.69;100.00;73627.69;5073276;28;20206;-76
2021/11/07 00:23:40;;;;;;;42.53;12.20;;;;;;;-145.69;100.00;73609.75;5073796;28;20236;-77
2021/11/07 00:26:14;;;;;;;36.57;12.57;;;;;;;-145.69;100.00;73595.81;5073511;28;20234;-76
2021/11/07 00:28:44;;;;;;;37.70;12.27;;;;;;;-145.69;100.00;73579.91;5073023;28;20245;-76
2021/11/07 00:31:21;;;;;;;39.97;13.17;;;;;;;-145.69;100.00;73577.91;5073728;28;20568;-77
2021/11/07 00:34:09;;;;;;;45.13;13.70;;;;;;;-145.69;100.00;73587.88;5073415;28;20203;-76
2021/11/07 00:36:36;;;;;;;32.73;11.57;;;;;;;-145.69;100.00;73599.81;5073443;28;20210;-76
2021/11/07 00:39:13;;;;;;;35.10;11.77;;;;;;;-145.69;100.00;73601.81;5073076;28;20278;-77
2021/11/07 00:41:48;;;;;;;37.93;11.27;;;;;;;-145.69;100.00;73593.84;5073574;28;20297;-76
2021/11/07 00:44:19;;;;;;;32.27;12.43;;;;;;;-145.69;100.00;73565.97;5073312;28;20209;-77
2021/11/07 00:46:48;;;;;;;40.27;12.80;;;;;;;-145.69;100.00;73577.91;5073030;28;20553;-77
2021/11/07 00:49:19;;;;;;;43.63;12.97;;;;;;;-145.69;100.00;73587.88;5072229;28;20222;-77
2021/11/07 00:51:57;;;;;;;41.83;13.17;;;;;;;-145.69;100.00;73615.72;5073057;28;20209;-76
2021/11/07 00:54:27;;;;;;;43.70;12.40;;;;;;;-145.69;100.00;73635.66;5072941;28;20700;-77
2021/11/07 00:56:57;;;;;;;44.07;12.67;;;;;;;-145.69;100.00;73631.66;5073391;28;20202;-77
2021/11/07 00:59:35;;;;;;;35.70;11.00;;;;;;;-145.69;100.00;73635.66;5073069;28;20577;-76
2021/11/07 01:02:12;;;;;;;38.70;11.13;;;;;;;-145.69;100.00;73633.66;5073003;28;20206;-77
2021/11/07 01:04:41;;;;;;;44.07;12.10;;;;;;;-145.69;100.00;73639.63;5072894;28;20214;-77
2021/11/07 01:07:08;;;;;;;39.13;11.60;;;;;;;-145.69;100.00;73635.66;5073179;28;20202;-77
2021/11/07 01:09:34;;;;;;;39.33;13.40;;;;;;;-145.69;100.00;73629.66;5073129;28;20234;-77
2021/11/07 01:12:02;;;;;;;43.93;13.57;;;;;;;-145.69;100.00;73629.66;5072570;28;20598;-76
2021/11/07 01:14:28;;;;;;;46.57;12.90;;;;;;;-145.69;100.00;73619.72;5072450;28;20202;-77
2021/11/07 01:16:55;;;;;;;44.00;13.47;;;;;;;-145.69;100.00;73619.72;5072918;28;20202;-77
2021/11/07 01:19:21;;;;;;;45.43;13.30;;;;;;;-145.69;100.00;73627.69;5072986;28;20206;-77
2021/11/07 01:21:48;;;;;;;40.33;11.77;;;;;;;-145.69;100.00;73629.66;5072887;28;20205;-76
2021/11/07 01:24:18;;;;;;;38.40;12.43;;;;;;;-145.69;100.00;73613.75;5072700;28;20206;-77
2021/11/07 01:26:48;;;;;;;53.97;14.33;;;;;;;-145.69;100.00;73599.81;5072391;28;20608;-77
2021/11/07 01:29:18;;;;;;;39.93;12.23;;;;;;;-145.69;100.00;73611.75;5072547;28;20284;-76
2021/11/07 01:31:47;;;;;;;50.40;13.37;;;;;;;-145.69;100.00;73589.84;5072878;28;20605;-77
2021/11/07 01:34:20;;;;;;;44.97;12.50;;;;;;;-145.69;100.00;73613.75;5073022;28;20225;-77
2021/11/07 01:36:49;;;;;;;37.13;12.37;;;;;;;-145.69;100.00;73643.59;5072743;28;20704;-77
2021/11/07 01:39:20;;;;;;;33.10;10.30;;;;;;;-145.69;100.00;73663.53;5072549;28;20195;-77
2021/11/07 01:42:01;;;;;;;33.37;11.20;;;;;;;-145.69;100.00;73675.47;5072645;28;20198;-77
2021/11/07 01:44:38;;;;;;;40.40;12.90;;;;;;;-145.69;100.00;73645.59;5072833;28;20205;-77
2021/11/07 01:47:05;;;;;;;49.87;13.93;;;;;;;-145.69;100.00;73639.63;5072596;28;20202;-77
2021/11/07 01:49:36;;;;;;;41.23;12.67;;;;;;;-145.69;100.00;73655.56;5072834;28;20679;-77
2021/11/07 01:52:07;;;;;;;44.90;11.90;;;;;;;-145.69;100.00;73653.56;5076321;28;20209;-76
2021/11/07 01:54:36;;;;;;;42.80;13.20;;;;;;;-145.69;100.00;73621.72;5076425;28;20230;-77
2021/11/07 01:57:03;;;;;;;57.57;15.40;;;;;;;-145.69;100.00;73583.88;5075959;28;20285;-77
2021/11/07 01:59:30;;;;;;;56.63;14.40;;;;;;;-145.69;100.00;73561.97;5076043;28;20300;-76
2021/11/07 02:02:00;;;;;;;53.77;13.47;;;;;;;-145.69;100.00;73550.03;5075936;28;20203;-76
2021/11/07 02:04:27;;;;;;;52.37;15.13;;;;;;;-145.69;100.00;73510.22;5075883;28;20195;-77
2021/11/07 02:06:53;;;;;;;57.20;15.27;;;;;;;-145.69;100.00;73508.22;5076275;28;20557;-76
2021/11/07 02:09:20;;;;;;;51.90;14.20;;;;;;;-145.69;100.00;73506.22;5075723;28;20762;-77
2021/11/07 02:11:46;;;;;;;57.27;14.43;;;;;;;-145.69;100.00;73500.25;5076054;28;20206;-77
2021/11/07 02:14:13;;;;;;;58.77;15.23;;;;;;;-145.69;100.00;73498.28;5075973;28;20629;-77
2021/11/07 02:16:41;;;;;;;61.57;14.33;;;;;;;-145.69;100.00;73508.22;5075868;28;20203;-76
2021/11/07 02:19:14;;;;;;;47.53;12.77;;;;;;;-145.69;100.00;73524.16;5075626;28;20199;-77
2021/11/07 02:21:43;;;;;;;49.03;13.50;;;;;;;-145.69;100.00;73528.13;5075887;28;20245;-76
2021/11/07 02:24:14;;;;;;;60.13;14.43;;;;;;;-145.69;100.00;73492.28;5075780;28;20199;-77
2021/11/07 02:26:41;;;;;;;50.60;13.73;;;;;;;-145.69;100.00;73480.34;5075555;28;20202;-77
2021/11/07 02:29:08;;;;;;;51.60;13.97;;;;;;;-145.69;100.00;73474.38;5075569;28;20280;-77
2021/11/07 02:31:34;;;;;;;39.83;12.67;;;;;;;-145.69;100.00;73478.34;5075479;28;20210;-78
2021/11/07 02:34:01;;;;;;;50.03;13.07;;;;;;;-145.69;100.00;73480.34;5075760;28;20206;-78
2021/11/07 02:36:27;;;;;;;43.33;12.33;;;;;;;-145.69;100.00;73492.28;5075371;28;20202;-77
2021/11/07 02:38:55;;;;;;;48.00;13.23;;;;;;;-145.69;100.00;73488.31;5075566;28;20248;-77
2021/11/07 02:41:22;;;;;;;43.93;13.60;;;;;;;-145.69;100.00;73482.34;5075466;28;20198;-77
2021/11/07 02:43:52;;;;;;;44.60;14.20;;;;;;;-145.69;100.00;73476.38;5075535;28;20206;-77
2021/11/07 02:46:19;;;;;;;47.80;12.57;;;;;;;-145.69;100.00;73464.44;5074462;28;20199;-78
2021/11/07 02:48:48;;;;;;;44.33;13.20;;;;;;;-145.69;100.00;73472.38;5075792;28;20207;-77
2021/11/07 02:51:15;;;;;;;45.27;13.13;;;;;;;-145.69;100.00;73492.28;5075784;28;20336;-77
2021/11/07 02:53:42;;;;;;;51.07;14.50;;;;;;;-145.69;100.00;73498.28;5075202;28;20238;-77
2021/11/07 02:56:10;;;;;;;49.40;14.67;;;;;;;-145.69;100.00;73476.38;5075557;28;20297;-77
2021/11/07 02:58:37;;;;;;;38.87;13.43;;;;;;;-145.69;100.00;73480.34;5075541;28;20285;-77
2021/11/07 03:01:04;;;;;;;56.20;15.50;;;;;;;-145.69;100.00;73442.53;5075231;28;20210;-77
2021/11/07 03:03:31;;;;;;;49.43;14.27;;;;;;;-145.69;100.00;73432.56;5075523;28;20207;-77
2021/11/07 03:06:00;;;;;;;62.73;15.27;;;;;;;-145.69;100.00;73420.63;5074806;28;20653;-76
2021/11/07 03:08:27;;;;;;;57.17;15.77;;;;;;;-145.69;100.00;73416.66;5075425;28;20248;-77
2021/11/07 03:10:53;;;;;;;49.47;14.87;;;;;;;-145.69;100.00;73424.59;5074990;28;20253;-79
2021/11/07 03:13:21;;;;;;;52.83;15.93;;;;;;;-145.69;100.00;73438.53;5074759;28;20202;-77
2021/11/07 03:15:48;;;;;;;46.83;13.87;;;;;;;-145.69;100.00;73450.50;5075262;28;20211;-77
2021/11/07 03:18:15;;;;;;;42.03;13.27;;;;;;;-145.69;100.00;73462.44;5075245;28;20210;-76
2021/11/07 03:20:41;;;;;;;46.87;13.67;;;;;;;-145.69;100.00;73468.41;5074683;28;20198;-77
2021/11/07 03:23:09;;;;;;;43.83;13.00;;;;;;;-145.69;100.00;73484.34;5074861;28;20207;-77
2021/11/07 03:25:45;;;;;;;33.93;11.77;;;;;;;-145.69;100.00;73486.31;5074714;28;20657;-76
2021/11/07 03:28:11;;;;;;;50.33;14.70;;;;;;;-145.69;100.00;73460.44;5074997;28;20286;-77
2021/11/07 03:30:45;;;;;;;43.93;13.17;;;;;;;-145.69;100.00;73464.44;5074359;28;20237;-77
2021/11/07 03:33:20;;;;;;;50.33;15.10;;;;;;;-145.69;100.00;73454.47;5074919;28;20203;-77
2021/11/07 03:35:47;;;;;;;49.80;13.97;;;;;;;-145.69;100.00;73468.41;5074479;28;20708;-77
2021/11/07 03:38:14;;;;;;;36.63;12.20;;;;;;;-145.69;100.00;73496.28;5074567;28;20205;-76
2021/11/07 03:40:40;;;;;;;35.63;12.67;;;;;;;-145.69;100.00;73508.22;5074457;28;20206;-76
2021/11/07 03:43:07;;;;;;;37.53;12.27;;;;;;;-145.69;100.00;73532.13;5074703;28;20206;-77
2021/11/07 03:45:34;;;;;;;50.97;14.73;;;;;;;-145.69;100.00;73506.22;5074529;28;20577;-77
2021/11/07 03:48:03;;;;;;;44.23;14.40;;;;;;;-145.69;100.00;73516.19;5074406;28;20214;-77
2021/11/07 03:50:31;;;;;;;47.37;13.93;;;;;;;-145.69;100.00;73532.13;5074253;28;20315;-77
2021/11/07 03:52:58;;;;;;;42.50;12.57;;;;;;;-145.69;100.00;73540.06;5073874;28;20238;-77
2021/11/07 03:55:25;;;;;;;41.23;12.43;;;;;;;-145.69;100.00;73552.03;5074215;28;20199;-77
2021/11/07 03:57:52;;;;;;;52.93;13.37;;;;;;;-145.69;100.00;73524.16;5073680;28;20676;-77
2021/11/07 04:00:20;;;;;;;50.60;13.13;;;;;;;-145.69;100.00;73524.16;5074084;28;20677;-77
2021/11/07 04:02:48;;;;;;;49.70;13.53;;;;;;;-145.69;100.00;73528.13;5074451;28;20210;-77
2021/11/07 04:05:16;;;;;;;56.43;14.17;;;;;;;-145.69;100.00;73520.16;5073849;28;20222;-77
2021/11/07 04:07:43;;;;;;;48.13;13.87;;;;;;;-145.69;100.00;73532.13;5074175;28;20203;-77
2021/11/07 04:10:11;;;;;;;51.20;14.17;;;;;;;-145.69;100.00;73516.19;5074089;28;20239;-77
2021/11/07 04:12:38;;;;;;;45.37;14.67;;;;;;;-145.69;100.00;73504.25;5073213;28;20633;-77
2021/11/07 04:15:06;;;;;;;45.57;13.33;;;;;;;-145.69;100.00;73510.22;5073480;28;20584;-77
2021/11/07 04:17:32;;;;;;;48.13;14.20;;;;;;;-145.69;100.00;73518.19;5073910;28;20209;-77
2021/11/07 04:19:59;;;;;;;54.10;13.80;;;;;;;-145.69;100.00;73502.25;5073944;28;20340;-77
2021/11/07 04:22:29;;;;;;;37.67;13.03;;;;;;;-145.69;100.00;73528.13;5073692;28;20205;-76
2021/11/07 04:24:56;;;;;;;49.70;12.97;;;;;;;-145.69;100.00;73526.16;5073596;28;20698;-77
2021/11/07 04:27:23;;;;;;;58.87;15.00;;;;;;;-145.69;100.00;73496.28;5073650;28;20644;-77
2021/11/07 04:29:49;;;;;;;56.80;15.00;;;;;;;-145.69;100.00;73494.28;5073497;28;20233;-77
2021/11/07 04:32:16;;;;;;;50.43;14.47;;;;;;;-145.69;100.00;73516.19;5073314;28;20206;-77
2021/11/07 04:34:43;;;;;;;50.20;13.90;;;;;;;-145.69;100.00;73526.16;5073489;28;20202;-77
2021/11/07 04:37:09;;;;;;;45.27;12.60;;;;;;;-145.69;100.00;73540.06;5073197;28;20221;-77
2021/11/07 04:39:37;;;;;;;45.93;13.23;;;;;;;-145.69;100.00;73508.22;5073458;28;20209;-77
2021/11/07 04:42:05;;;;;;;39.20;11.80;;;;;;;-145.69;100.00;73512.22;5073246;28;20214;-77
2021/11/07 04:44:31;;;;;;;43.17;12.47;;;;;;;-145.69;100.00;73484.34;5073411;28;20565;-77
2021/11/07 04:46:58;;;;;;;51.63;14.03;;;;;;;-145.69;100.00;73478.34;5072955;28;20205;-78
2021/11/07 04:49:25;;;;;;;56.87;14.60;;;;;;;-145.69;100.00;73490.31;5072951;28;20653;-77
2021/11/07 04:51:52;;;;;;;50.20;14.90;;;;;;;-145.69;100.00;73486.31;5073147;28;20203;-77
2021/11/07 04:54:19;;;;;;;50.27;14.83;;;;;;;-145.69;100.00;73502.25;5072972;28;20251;-77
2021/11/07 04:56:47;;;;;;;52.97;14.40;;;;;;;-145.69;100.00;73500.25;5073362;28;20237;-77
2021/11/07 04:59:14;;;;;;;56.77;14.70;;;;;;;-145.69;100.00;73512.22;5073026;28;20198;-78
2021/11/07 05:01:40;;;;;;;52.23;14.07;;;;;;;-145.69;100.00;73536.09;5072880;28;20199;-78
2021/11/07 05:04:07;;;;;;;48.20;13.10;;;;;;;-145.69;100.00;73516.19;5073399;28;20201;-78
2021/11/07 05:06:34;;;;;;;54.97;14.77;;;;;;;-145.69;100.00;73510.22;5072921;28;20711;-77
2021/11/07 05:09:00;;;;;;;45.37;12.60;;;;;;;-145.69;100.00;73520.16;5072834;28;20203;-76
2021/11/07 05:11:27;;;;;;;48.93;12.47;;;;;;;-145.69;100.00;73534.09;5072809;28;20222;-76
2021/11/07 05:13:55;;;;;;;43.30;12.30;;;;;;;-145.69;100.00;73494.28;5073266;28;20199;-77
2021/11/07 05:16:21;;;;;;;46.47;12.83;;;;;;;-145.69;100.00;73514.19;5072829;28;20573;-76
2021/11/07 05:18:48;;;;;;;39.80;12.47;;;;;;;-145.69;100.00;73524.16;5072957;28;20218;-77
2021/11/07 05:21:15;;;;;;;43.03;13.50;;;;;;;-145.69;100.00;73518.19;5072686;28;20209;-77
2021/11/07 05:23:42;;;;;;;52.10;13.90;;;;;;;-145.69;100.00;73508.22;5072867;28;20653;-77
2021/11/07 05:26:08;;;;;;;48.47;14.07;;;;;;;-145.69;100.00;73498.28;5076246;28;20198;-77
2021/11/07 05:28:35;;;;;;;51.10;13.93;;;;;;;-145.69;100.00;73498.28;5077272;28;20229;-76
2021/11/07 05:31:03;;;;;;;49.23;14.23;;;;;;;-145.69;100.00;73510.22;5076643;28;20727;-77
2021/11/07 05:33:31;;;;;;;52.07;14.10;;;;;;;-145.69;100.00;73514.19;5077252;28;20245;-77
2021/11/07 05:35:57;;;;;;;56.27;13.37;;;;;;;-145.69;100.00;73540.06;5076662;28;20293;-77
2021/11/07 05:38:24;;;;;;;47.20;14.03;;;;;;;-145.69;100.00;73544.06;5076768;28;20332;-77
2021/11/07 05:40:51;;;;;;;44.57;13.13;;;;;;;-145.69;100.00;73544.06;5076598;28;20202;-76
2021/11/07 05:43:17;;;;;;;46.87;14.17;;;;;;;-145.69;100.00;73560.00;5076544;28;20258;-77
2021/11/07 05:45:44;;;;;;;50.53;14.60;;;;;;;-145.69;100.00;73532.13;5076645;28;20203;-77
2021/11/07 05:48:12;;;;;;;56.00;14.93;;;;;;;-145.69;100.00;73504.25;5076488;28;20229;-77
2021/11/07 05:50:39;;;;;;;50.17;13.17;;;;;;;-145.69;100.00;73516.19;5076430;28;20233;-77
2021/11/07 05:53:05;;;;;;;48.60;14.40;;;;;;;-145.69;100.00;73516.19;5076282;28;20232;-77
2021/11/07 05:55:32;;;;;;;49.43;13.83;;;;;;;-145.69;100.00;73524.16;5076453;28;20199;-77
2021/11/07 05:57:59;;;;;;;53.63;14.07;;;;;;;-145.69;100.00;73516.19;5076402;28;20202;-76
2021/11/07 06:00:27;;;;;;;58.73;13.17;;;;;;;-145.69;100.00;73522.16;5076180;28;20209;-77
2021/11/07 06:02:54;;;;;;;59.13;14.03;;;;;;;-145.69;100.00;73532.13;5076405;28;20252;-77
2021/11/07 06:05:23;;;;;;;59.80;14.00;;;;;;;-145.69;100.00;73516.19;5076002;28;20669;-78
2021/11/07 06:07:50;;;;;;;58.93;14.47;;;;;;;-145.69;100.00;73514.19;5076247;28;20217;-77
2021/11/07 06:10:16;;;;;;;51.57;14.83;;;;;;;-145.69;100.00;73520.16;5076210;28;20241;-76
2021/11/07 06:12:44;;;;;;;52.63;14.40;;;;;;;-145.69;100.00;73518.19;5076309;28;20578;-77
2021/11/07 06:15:11;;;;;;;57.33;13.10;;;;;;;-145.69;100.00;73532.13;5076252;28;20571;-77
2021/11/07 06:17:37;;;;;;;58.90;14.43;;;;;;;-145.69;100.00;73524.16;5075714;28;20202;-77
2021/11/07 06:20:05;;;;;;;48.30;13.13;;;;;;;-145.69;100.00;73508.22;5075986;28;20557;-77
2021/11/07 06:22:34;;;;;;;55.57;13.53;;;;;;;-145.69;100.00;73516.19;5075935;28;20210;-77
2021/11/07 06:25:00;;;;;;;50.83;12.10;;;;;;;-145.69;100.00;73512.22;5075797;28;20203;-77
2021/11/07 06:27:29;;;;;;;47.13;13.47;;;;;;;-145.69;100.00;73508.22;5075666;28;20199;-77
2021/11/07 06:29:56;;;;;;;55.20;13.80;;;;;;;-145.69;100.00;73504.25;5076002;28;20229;-77
2021/11/07 06:32:22;;;;;;;52.07;13.40;;;;;;;-145.69;100.00;73488.31;5075596;28;20214;-77
2021/11/07 06:34:49;;;;;;;48.47;12.83;;;;;;;-145.69;100.00;73492.28;5075632;28;20673;-77
2021/11/07 06:37:15;;;;;;;40.67;12.03;;;;;;;-145.69;100.00;73490.31;5075191;28;20550;-77
2021/11/07 06:39:43;;;;;;;55.87;13.80;;;;;;;-145.69;100.00;73480.34;5075670;28;20206;-78
2021/11/07 06:42:11;;;;;;;52.63;12.40;;;;;;;-145.69;100.00;73472.38;5075669;28;20203;-77
2021/11/07 06:44:38;;;;;;;45.97;13.83;;;;;;;-145.69;100.00;73466.41;5075708;28;20206;-77
2021/11/07 06:47:07;;;;;;;59.43;13.87;;;;;;;-145.69;100.00;73444.50;5075581;28;20198;-77
2021/11/07 06:49:34;;;;;;;57.37;13.90;;;;;;;-145.69;100.00;73422.63;5075404;28;20570;-77
2021/11/07 06:52:00;;;;;;;46.40;12.03;;;;;;;-145.69;100.00;73410.66;5075112;28;20327;-77
2021/11/07 06:54:27;;;;;;;52.93;12.93;;;;;;;-145.69;100.00;73418.63;5074417;28;20686;-77
2021/11/07 06:56:55;;;;;;;39.67;11.67;;;;;;;-145.69;100.00;73422.63;5075396;28;20207;-77
2021/11/07 06:59:22;;;;;;;48.53;12.20;;;;;;;-145.69;100.00;73414.66;5075252;28;20202;-77
2021/11/07 07:01:49;;;;;;;45.33;12.60;;;;;;;-145.69;100.00;73386.78;5075265;28;20206;-77
2021/11/07 07:04:15;;;;;;;50.93;14.50;;;;;;;-145.69;100.00;73370.84;5075058;28;20194;-77
2021/11/07 07:06:41;;;;;;;47.20;14.27;;;;;;;-145.69;100.00;73364.88;5074965;28;20252;-77
2021/11/07 07:09:10;;;;;;;52.07;13.47;;;;;;;-145.69;100.00;73342.97;5075286;28;20558;-77
2021/11/07 07:11:42;;;;;;;49.07;13.50;;;;;;;-145.69;100.00;73356.91;5074845;28;20230;-77
2021/11/07 07:14:13;;;;;;;52.67;13.33;;;;;;;-145.69;100.00;73356.91;5075140;28;20634;-78
2021/11/07 07:16:47;;;;;;;41.70;13.17;;;;;;;-145.69;100.00;73364.88;5074940;28;20202;-77
2021/11/07 07:22:15;;;;;;;33.77;11.70;;;;;;;-145.69;100.00;73354.94;5017550;28;20199;-78
2021/11/07 07:30:35;;;;;;;35.03;9.90;;;;;;;-145.69;100.00;73295.19;5070271;28;20222;-77
2021/11/07 07:33:14;;;;;;;47.70;10.20;;;;;;;-145.69;100.00;73259.38;5074779;28;20249;-77
2021/11/07 07:35:41;;;;;;;28.40;9.23;;;;;;;-145.69;100.00;73229.50;5074131;28;20561;-77
2021/11/07 07:38:07;;;;;;;23.53;9.50;;;;;;;-145.69;100.00;73205.63;5074636;28;20206;-78
2021/11/07 07:40:34;;;;;;;33.97;10.90;;;;;;;-145.69;100.00;73193.66;5074584;28;20203;-77
2021/11/07 07:43:00;;;;;;;24.73;8.83;;;;;;;-145.69;100.00;73183.72;5074558;28;20194;-77
2021/11/07 07:45:29;;;;;;;30.27;9.80;;;;;;;-145.69;100.00;73169.78;5074171;28;20199;-77
2021/11/07 07:47:56;;;;;;;32.40;10.27;;;;;;;-145.69;100.00;73173.75;5073119;28;20202;-77
2021/11/07 07:50:24;;;;;;;21.90;8.63;;;;;;;-145.69;100.00;73169.78;5074185;28;20230;-78
2021/11/07 07:52:51;;;;;;;31.13;9.77;;;;;;;-145.69;100.00;73169.78;5073868;28;20222;-77
2021/11/07 07:55:18;;;;;;;29.73;9.10;;;;;;;-145.69;100.00;73153.84;5074036;28;20203;-78
2021/11/07 07:57:46;;;;;;;20.33;8.83;;;;;;;-145.69;100.00;73129.97;5074117;28;20202;-77
2021/11/07 08:00:15;;;;;;;27.60;9.97;;;;;;;-145.69;100.00;73112.06;5073705;28;20199;-78
2021/11/07 08:02:43;;;;;;;27.97;8.93;;;;;;;-145.69;100.00;73078.22;5073964;28;20209;-78
2021/11/07 08:05:12;;;;;;;24.33;9.07;;;;;;;-145.69;100.00;73054.31;5074153;28;20708;-77
2021/11/07 08:07:39;;;;;;;21.20;8.43;;;;;;;-145.69;100.00;73040.38;5073974;28;20217;-80
2021/11/07 08:10:06;;;;;;;20.57;8.07;;;;;;;-145.69;100.00;73022.47;5073867;28;20248;-79
2021/11/07 08:12:32;;;;;;;13.50;6.17;;;;;;;-145.69;100.00;72992.59;5073526;28;20226;-79
2021/11/07 08:15:00;;;;;;;12.47;5.43;;;;;;;-145.69;100.00;72968.72;5073589;28;20195;-79
2021/11/07 08:17:27;;;;;;;11.53;4.77;;;;;;;-145.69;100.00;72944.84;5073558;28;20249;-78
2021/11/07 08:19:55;;;;;;;8.33;4.10;;;;;;;-145.69;100.00;72936.88;5073881;28;20226;-79
2021/11/07 08:22:22;;;;;;;12.70;4.20;;;;;;;-145.69;100.00;72926.91;5073435;28;20210;-79
2021/11/07 08:24:48;;;;;;;10.63;4.87;;;;;;;-145.69;100.00;72913.00;5073758;28;20199;-79
2021/11/07 08:27:16;;;;;;;9.53;4.43;;;;;;;-145.69;100.00;72911.00;5073697;28;20202;-79
2021/11/07 08:29:44;;;;;;;13.43;5.47;;;;;;;-145.69;100.00;72855.25;5073362;28;20704;-79
2021/11/07 08:32:11;;;;;;;11.53;5.37;;;;;;;-145.69;100.00;72797.53;5073119;28;20226;-78
2021/11/07 08:34:38;;;;;;;11.83;4.87;;;;;;;-145.69;100.00;72787.56;5073177;28;20212;-79
2021/11/07 08:37:08;;;;;;;8.43;4.43;;;;;;;-145.69;100.00;72839.34;5073213;28;20202;-79
2021/11/07 08:39:38;;;;;;;7.53;3.50;;;;;;;-145.69;100.00;72839.34;5073266;28;20213;-79
2021/11/07 08:42:14;;;;;;;5.53;2.87;;;;;;;-145.69;100.00;72819.44;5073352;28;20259;-78
2021/11/07 09:01:18;;;;;;;10.10;3.60;;;;;;;-145.69;100.00;72753.75;5052985;28;20206;-78
2021/11/07 09:03:52;;;;;;;5.47;3.43;;;;;;;-145.69;100.00;72713.94;5052790;28;20203;-78
2021/11/07 09:06:40;;;;;;;5.60;3.10;;;;;;;-145.69;100.00;72658.19;5053186;28;20203;-78
2021/11/07 09:09:11;;;;;;;3.53;2.20;;;;;;;-145.69;100.00;72640.28;5052987;28;20604;-78
2021/11/07 09:11:47;;;;;;;3.23;2.20;;;;;;;-145.69;100.00;72576.59;5052553;28;20285;-78
2021/11/07 09:14:14;;;;;;;4.97;2.10;;;;;;;-145.69;100.00;72520.84;5052712;28;20225;-78
2021/11/07 09:16:41;;;;;;;5.00;1.90;;;;;;;-145.69;100.00;72467.13;5052540;28;20601;-78
2021/11/07 09:19:07;;;;;;;3.83;1.87;;;;;;;-145.69;100.00;72449.19;5052566;28;20628;-78
2021/11/07 09:21:38;;;;;;;3.67;2.00;;;;;;;-145.69;100.00;72425.31;5052745;28;20268;-78
2021/11/07 09:24:08;;;;;;;2.73;1.50;;;;;;;-145.69;93.36;72449.19;5052687;28;20207;-78
2021/11/07 09:26:40;;;;;;;3.47;2.00;;;;;;;-145.69;100.00;72453.19;5052996;28;20257;-78
2021/11/07 09:29:09;;;;;;;2.40;1.53;;;;;;;-145.69;100.00;72405.41;5052837;28;20676;-78
2021/11/07 09:31:43;;;;;;;2.90;1.60;;;;;;;-145.69;100.00;72381.53;5052605;28;20582;-78
2021/11/07 09:34:17;;;;;;;2.17;1.10;;;;;;;-145.69;83.74;72359.63;5052909;28;20253;-78
2021/11/07 09:36:47;;;;;;;1.93;1.23;;;;;;;-145.69;100.00;72286.00;5052968;28;20207;-78
2021/11/07 09:39:21;;;;;;;2.73;1.80;;;;;;;-145.69;100.00;72232.25;5052771;28;20705;-78
2021/11/07 09:42:28;;;;;;;3.07;1.77;;;;;;;-145.69;100.00;72202.41;5052520;28;20195;-79
2021/11/07 09:45:02;;;;;;;1.53;1.30;;;;;;;-145.69;92.24;72212.34;5052835;28;20206;-78
2021/11/07 09:47:33;;;;;;;2.20;1.20;;;;;;;-145.69;94.91;72218.31;5053297;28;20260;-79
2021/11/07 09:50:00;;;;;;;1.03;0.90;;;;;;;-145.69;99.56;72234.25;5052548;28;20199;-78
2021/11/07 09:52:33;;;;;;;1.80;1.20;;;;;;;-145.69;72.68;72274.06;5052587;28;20227;-78
2021/11/07 09:55:02;;;;;;;3.20;1.40;;;;;;;-145.69;78.83;72282.00;5052980;28;20201;-78
2021/11/07 09:57:31;;;;;;;3.43;1.50;;;;;;;-145.69;79.68;72282.00;5053115;28;20218;-78
2021/11/07 10:00:08;;;;;;;1.73;1.30;;;;;;;-145.69;76.29;72293.94;5052957;28;20227;-78
2021/11/07 10:02:39;;;;;;;2.33;1.30;;;;;;;-145.69;68.02;72291.97;5052938;28;20260;-78
2021/11/07 10:05:06;;;;;;;5.30;1.67;;;;;;;-145.69;60.81;72274.06;5052849;28;20199;-78
2021/11/07 10:07:35;;;;;;;2.33;1.20;;;;;;;-145.69;61.21;72262.09;5052334;28;20206;-78
2021/11/07 10:10:12;;;;;;;1.40;1.03;;;;;;;-145.69;61.61;72250.16;5052309;28;20199;-77
2021/11/07 10:12:42;;;;;;;2.47;1.10;;;;;;;-145.69;64.32;72230.25;5056259;28;20223;-78
2021/11/07 10:15:12;;;;;;;1.20;0.93;;;;;;;-145.69;60.55;72222.31;5056472;28;20199;-78
2021/11/07 10:17:43;;;;;;;1.90;1.17;;;;;;;-145.69;61.80;72206.38;5056002;28;20601;-78
2021/11/07 10:20:19;;;;;;;1.43;0.87;;;;;;;-145.69;58.72;72230.25;5055798;28;20561;-78
2021/11/07 10:22:53;;;;;;;1.73;0.77;;;;;;;-145.69;55.27;72240.22;5056177;28;20704;-77
2021/11/07 10:25:23;;;;;;;1.00;0.80;;;;;;;-145.69;60.82;72242.22;5056153;28;20210;-77
2021/11/07 10:27:54;;;;;;;1.03;0.73;;;;;;;-145.69;54.83;72246.19;5056206;28;20210;-77
2021/11/07 10:30:24;;;;;;;1.37;1.13;;;;;;;-145.69;54.83;72252.16;5055976;28;20215;-78
2021/11/07 10:32:58;;;;;;;1.67;1.10;;;;;;;-145.69;54.31;72238.22;5055611;28;20685;-77
2021/11/07 10:35:43;;;;;;;1.40;1.00;;;;;;;-145.69;54.14;72236.22;5055356;28;20293;-77
2021/11/07 10:41:52;;;;;;;1.87;0.80;;;;;;;-145.69;51.15;72194.44;5013738;28;20254;-78
2021/11/07 10:44:33;;;;;;;0.80;0.70;;;;;;;-145.69;51.68;72152.66;5055552;28;20203;-78
2021/11/07 10:47:29;;;;;;;0.77;0.53;;;;;;;-145.69;48.48;72144.69;5066333;28;20209;-77
2021/11/07 10:52:44;;;;;;;0.70;0.70;;;;;;;-145.69;52.80;72146.69;5067302;28;20343;-78
2021/11/07 10:55:18;;;;;;;1.40;1.00;;;;;;;-145.69;53.43;72138.72;5055384;28;20204;-79
2021/11/07 10:57:46;;;;;;;3.27;1.30;;;;;;;-145.69;56.29;72112.84;5055133;28;20206;-79
2021/11/07 11:00:25;;;;;;;0.77;0.77;;;;;;;-145.69;57.22;72112.84;5055419;28;20205;-78
2021/11/07 11:02:54;;;;;;;1.97;0.87;;;;;;;-145.69;53.53;72102.88;5055200;28;20213;-78
2021/11/07 11:05:23;;;;;;;1.00;0.60;;;;;;;-145.69;51.91;72094.94;5055290;28;20215;-79
2021/11/07 11:08:04;;;;;;;3.37;0.87;;;;;;;-145.69;51.12;72096.91;5054958;28;20646;-77
2021/11/07 11:10:37;;;;;;;0.90;0.70;;;;;;;-145.69;51.58;72084.97;5066284;28;20233;-76
2021/11/07 11:13:27;;;;;;;1.70;0.90;;;;;;;-145.69;51.26;72077.00;5075279;28;20304;-77
2021/11/07 11:19:14;;;;;;;1.00;0.80;;;;;;;-145.69;50.76;72045.16;5074891;28;20680;-76
2021/11/07 11:24:52;;;;;;;1.67;0.90;;;;;;;-145.69;50.92;71999.41;5074757;28;20194;-77
2021/11/07 11:30:13;;;;;;;1.33;0.90;;;;;;;-145.69;52.28;71864.06;5074599;28;20206;-77
2021/11/07 11:32:46;;;;;;;1.33;0.97;;;;;;;-145.69;51.61;71822.28;5074538;28;20229;-78
2021/11/07 11:35:18;;;;;;;1.30;0.67;;;;;;;-145.69;50.26;71830.25;5074580;28;20295;-77
2021/11/07 11:37:53;;;;;;;1.37;0.73;;;;;;;-145.69;49.92;71828.25;5074839;28;20264;-76
2021/11/07 11:40:24;;;;;;;1.40;0.87;;;;;;;-145.69;47.45;71939.69;5074435;28;20719;-77
2021/11/07 11:42:55;;;;;;;1.17;0.90;;;;;;;-145.69;49.86;71959.59;5074476;28;20205;-77
2021/11/07 11:45:25;;;;;;;1.97;1.00;;;;;;;-145.69;51.17;71939.69;5074415;28;20256;-77
2021/11/07 11:48:13;;;;;;;2.13;1.00;;;;;;;-145.69;50.36;71939.69;5074244;28;20207;-77
2021/11/07 11:51:20;;;;;;;3.37;1.63;;;;;;;-145.69;52.41;71939.69;5074058;28;20210;-76
2021/11/07 11:57:22;;;;;;;2.77;1.53;;;;;;;-145.69;53.13;72011.34;5074271;28;20236;-77